createdAt,value
2017-09-25T00:01:28.124Z,20.46
2017-09-25T00:03:56.460Z,21.40
2017-09-25T00:06:24.791Z,25.20
2017-09-25T00:08:53.127Z,23.42
2017-09-25T00:11:21.451Z,22.96
2017-09-25T00:13:49.792Z,19.50
2017-09-25T00:16:18.110Z,23.88
2017-09-25T00:18:46.447Z,23.28
2017-09-25T00:21:14.768Z,24.72
2017-09-25T00:23:43.102Z,24.52
2017-09-25T00:26:11.420Z,22.52
2017-09-25T00:28:39.736Z,24.02
2017-09-25T00:31:08.075Z,26.22
2017-09-25T00:33:36.387Z,25.18
2017-09-25T00:36:04.726Z,25.58
2017-09-25T00:38:33.047Z,29.90
2017-09-25T00:41:01.383Z,22.42
2017-09-25T00:43:29.706Z,24.23
2017-09-25T00:45:58.052Z,25.60
2017-09-25T00:48:26.384Z,22.63
2017-09-25T00:50:54.748Z,27.54
2017-09-25T00:53:34.820Z,30.70
2017-09-25T00:56:03.144Z,44.88
2017-09-25T00:58:31.480Z,63.84
2017-09-25T01:01:11.597Z,89.60
2017-09-25T01:03:51.164Z,45.50
2017-09-25T01:06:26.159Z,29.67
2017-09-25T01:08:54.499Z,26.82
2017-09-25T01:11:22.820Z,24.94
2017-09-25T01:13:51.159Z,28.22
2017-09-25T01:16:19.488Z,27.48
2017-09-25T01:18:47.830Z,25.96
2017-09-25T01:21:16.149Z,24.40
2017-09-25T01:23:44.511Z,26.67
2017-09-25T01:26:12.837Z,23.62
2017-09-25T01:28:41.153Z,25.00
2017-09-25T01:31:09.495Z,22.78
2017-09-25T01:33:37.812Z,21.30
2017-09-25T01:36:06.190Z,36.42
2017-09-25T01:38:34.492Z,35.40
2017-09-25T01:41:02.831Z,36.62
2017-09-25T01:43:31.151Z,23.05
2017-09-25T01:45:59.491Z,24.05
2017-09-25T01:48:27.804Z,22.33
2017-09-25T01:50:56.139Z,21.84
2017-09-25T01:53:24.458Z,24.88
2017-09-25T01:55:52.779Z,22.40
2017-09-25T01:58:21.119Z,26.37
2017-09-25T02:00:49.443Z,25.38
2017-09-25T02:03:17.779Z,25.72
2017-09-25T02:05:46.099Z,23.43
2017-09-25T02:08:14.430Z,24.35
2017-09-25T02:10:42.743Z,26.22
2017-09-25T02:13:11.086Z,22.70
2017-09-25T02:15:39.418Z,23.86
2017-09-25T02:18:07.775Z,23.13
2017-09-25T02:20:36.091Z,23.74
2017-09-25T02:23:04.411Z,23.15
2017-09-25T02:25:32.751Z,25.90
2017-09-25T02:28:01.099Z,27.72
2017-09-25T02:30:29.440Z,22.37
2017-09-25T02:32:57.768Z,22.32
2017-09-25T02:35:26.111Z,23.74
2017-09-25T02:37:54.449Z,21.68
2017-09-25T02:40:22.795Z,26.78
2017-09-25T02:42:51.117Z,22.80
2017-09-25T02:45:19.799Z,22.28
2017-09-25T02:47:48.137Z,21.38
2017-09-25T02:50:16.455Z,22.78
2017-09-25T02:52:44.795Z,23.08
2017-09-25T02:55:13.119Z,28.50
2017-09-25T02:57:41.463Z,23.65
2017-09-25T03:00:09.775Z,27.22
2017-09-25T03:02:38.115Z,25.72
2017-09-25T03:05:06.435Z,23.55
2017-09-25T03:07:34.788Z,26.22
2017-09-25T03:10:03.116Z,25.03
2017-09-25T03:12:31.435Z,23.83
2017-09-25T03:14:59.003Z,19.37
2017-09-25T03:17:27.331Z,22.43
2017-09-25T03:19:55.675Z,20.37
2017-09-25T03:22:23.992Z,23.60
2017-09-25T03:24:52.328Z,23.88
2017-09-25T03:27:20.647Z,24.63
2017-09-25T03:29:48.992Z,20.90
2017-09-25T03:32:17.315Z,17.45
2017-09-25T03:34:45.659Z,20.93
2017-09-25T03:37:13.976Z,23.23
2017-09-25T03:39:42.295Z,21.88
2017-09-25T03:42:10.639Z,24.67
2017-09-25T03:44:38.979Z,22.40
2017-09-25T03:47:07.319Z,20.42
2017-09-25T03:49:35.640Z,21.00
2017-09-25T03:52:03.983Z,21.53
2017-09-25T03:54:32.299Z,24.02
2017-09-25T03:57:00.648Z,23.18
2017-09-25T03:59:28.967Z,22.23
2017-09-25T04:01:57.280Z,21.70
2017-09-25T04:04:25.619Z,22.82
2017-09-25T04:06:53.931Z,22.63
2017-09-25T04:09:22.271Z,20.62
2017-09-25T04:11:50.587Z,20.52
2017-09-25T04:14:18.927Z,22.88
2017-09-25T04:16:46.485Z,25.68
2017-09-25T04:19:14.822Z,19.87
2017-09-25T04:21:43.145Z,21.20
2017-09-25T04:24:11.454Z,24.48
2017-09-25T04:26:39.797Z,21.50
2017-09-25T04:29:08.115Z,20.53
2017-09-25T04:31:36.451Z,21.08
2017-09-25T04:34:04.767Z,22.97
2017-09-25T04:36:33.105Z,18.88
2017-09-25T04:39:01.415Z,22.47
2017-09-25T04:41:29.755Z,22.85
2017-09-25T04:43:58.076Z,19.25
2017-09-25T04:46:26.448Z,26.37
2017-09-25T04:48:54.772Z,23.20
2017-09-25T04:51:23.087Z,25.18
2017-09-25T04:53:51.423Z,29.62
2017-09-25T04:56:19.744Z,28.35
2017-09-25T04:58:48.083Z,29.50
2017-09-25T05:01:16.404Z,31.32
2017-09-25T05:03:44.742Z,30.87
2017-09-25T05:06:13.059Z,25.60
2017-09-25T05:08:41.399Z,25.73
2017-09-25T05:11:09.719Z,21.48
2017-09-25T05:13:38.078Z,23.92
2017-09-25T05:16:06.419Z,23.83
2017-09-25T05:18:34.748Z,27.40
2017-09-25T05:21:03.096Z,25.20
2017-09-25T05:23:31.419Z,24.53
2017-09-25T05:25:59.763Z,23.68
2017-09-25T05:28:28.079Z,25.38
2017-09-25T05:30:56.414Z,20.33
2017-09-25T05:33:24.731Z,22.35
2017-09-25T05:35:53.223Z,24.35
2017-09-25T05:38:21.539Z,20.67
2017-09-25T05:40:49.892Z,22.27
2017-09-25T05:43:18.211Z,23.18
2017-09-25T05:45:46.547Z,23.67
2017-09-25T05:48:14.888Z,22.85
2017-09-25T05:50:43.203Z,23.90
2017-09-25T05:53:11.543Z,23.33
2017-09-25T05:55:39.864Z,69.75
2017-09-25T05:58:08.203Z,49.25
2017-09-25T06:00:36.515Z,93.78
2017-09-25T06:03:04.859Z,40.67
2017-09-25T06:05:33.179Z,41.02
2017-09-25T06:08:01.519Z,47.97
2017-09-25T06:10:29.838Z,35.22
2017-09-25T06:12:58.159Z,28.62
2017-09-25T06:15:26.504Z,27.85
2017-09-25T06:17:54.818Z,34.35
2017-09-25T06:20:23.159Z,32.35
2017-09-25T06:22:51.479Z,33.45
2017-09-25T06:25:19.824Z,30.07
2017-09-25T06:27:48.139Z,31.40
2017-09-25T06:30:16.479Z,35.48
2017-09-25T06:32:44.796Z,35.17
2017-09-25T06:35:13.115Z,28.03
2017-09-25T06:37:41.455Z,32.05
2017-09-25T06:40:09.003Z,23.72
2017-09-25T06:42:37.342Z,27.52
2017-09-25T06:45:05.651Z,25.66
2017-09-25T06:47:33.987Z,23.20
2017-09-25T06:50:02.341Z,27.08
2017-09-25T06:52:30.695Z,24.35
2017-09-25T06:54:59.020Z,27.00
2017-09-25T06:57:27.374Z,34.86
2017-09-25T06:59:55.692Z,43.22
2017-09-25T07:02:24.015Z,43.12
2017-09-25T07:04:52.352Z,35.10
2017-09-25T07:07:20.671Z,35.20
2017-09-25T07:09:49.007Z,29.88
2017-09-25T07:12:17.322Z,28.08
2017-09-25T07:14:45.659Z,23.36
2017-09-25T07:17:13.981Z,24.04
2017-09-25T07:19:42.332Z,25.22
2017-09-25T07:22:10.643Z,26.14
2017-09-25T07:24:38.999Z,22.88
2017-09-25T07:27:07.315Z,22.16
2017-09-25T07:29:35.883Z,21.78
2017-09-25T07:32:04.238Z,21.16
2017-09-25T07:34:32.556Z,25.64
2017-09-25T07:37:00.902Z,22.58
2017-09-25T07:39:29.222Z,24.72
2017-09-25T07:41:57.564Z,27.00
2017-09-25T07:44:25.922Z,22.86
2017-09-25T07:46:54.259Z,19.10
2017-09-25T07:49:22.608Z,23.68
2017-09-25T07:51:50.977Z,27.72
2017-09-25T07:54:19.304Z,20.00
2017-09-25T07:56:47.635Z,22.26
2017-09-25T07:59:15.974Z,19.62
2017-09-25T08:01:44.301Z,24.82
2017-09-25T08:04:12.639Z,21.82
2017-09-25T08:06:40.959Z,17.96
2017-09-25T08:09:09.303Z,19.60
2017-09-25T08:11:37.619Z,25.30
2017-09-25T08:14:05.961Z,22.78
2017-09-25T08:16:34.283Z,20.90
2017-09-25T08:19:02.650Z,18.14
2017-09-25T08:21:30.972Z,21.88
2017-09-25T08:23:59.290Z,19.88
2017-09-25T08:26:27.637Z,19.16
2017-09-25T08:28:55.964Z,22.10
2017-09-25T08:31:24.304Z,26.28
2017-09-25T08:33:52.619Z,22.02
2017-09-25T08:36:20.967Z,23.94
2017-09-25T08:38:49.288Z,20.50
2017-09-25T08:41:17.648Z,19.12
2017-09-25T08:43:45.963Z,16.28
2017-09-25T08:46:14.327Z,25.34
2017-09-25T08:48:42.647Z,20.66
2017-09-25T08:51:10.971Z,17.46
2017-09-25T08:53:39.315Z,16.52
2017-09-25T08:56:27.500Z,15.80
2017-09-25T08:58:55.814Z,15.74
2017-09-25T09:01:24.180Z,15.78
2017-09-25T09:03:52.507Z,20.30
2017-09-25T09:06:20.839Z,19.22
2017-09-25T09:08:49.211Z,18.12
2017-09-25T09:11:17.547Z,16.44
2017-09-25T09:13:45.892Z,15.88
2017-09-25T09:16:14.225Z,16.14
2017-09-25T09:18:42.573Z,17.82
2017-09-25T09:21:10.900Z,20.90
2017-09-25T09:23:39.271Z,18.10
2017-09-25T09:26:06.828Z,17.00
2017-09-25T09:28:35.149Z,13.20
2017-09-25T09:31:03.492Z,12.12
2017-09-25T09:33:31.801Z,11.74
2017-09-25T09:35:59.384Z,11.96
2017-09-25T09:38:27.706Z,12.70
2017-09-25T09:40:56.056Z,13.86
2017-09-25T09:43:24.393Z,10.92
2017-09-25T09:45:51.994Z,10.90
2017-09-25T09:48:20.310Z,11.34
2017-09-25T09:50:48.629Z,11.16
2017-09-25T09:53:16.968Z,12.40
2017-09-25T09:55:45.272Z,9.86
2017-09-25T09:58:13.619Z,12.20
2017-09-25T10:00:41.927Z,9.54
2017-09-25T10:03:10.270Z,9.86
2017-09-25T10:05:38.584Z,11.30
2017-09-25T10:08:06.936Z,10.08
2017-09-25T10:10:35.252Z,9.70
2017-09-25T10:13:03.567Z,12.14
2017-09-25T10:15:31.899Z,7.82
2017-09-25T10:18:00.208Z,6.76
2017-09-25T10:20:28.539Z,7.18
2017-09-25T10:22:56.856Z,6.60
2017-09-25T10:25:25.205Z,6.06
2017-09-25T10:27:53.516Z,4.92
2017-09-25T10:30:21.863Z,5.08
2017-09-25T10:32:50.176Z,4.74
2017-09-25T10:35:17.767Z,4.22
2017-09-25T10:37:46.080Z,5.32
2017-09-25T10:40:14.399Z,5.30
2017-09-25T10:42:42.735Z,6.66
2017-09-25T10:45:11.048Z,7.82
2017-09-25T10:47:39.383Z,5.52
2017-09-25T10:50:07.732Z,5.48
2017-09-25T10:52:36.069Z,4.98
2017-09-25T10:55:04.386Z,5.10
2017-09-25T10:57:32.724Z,5.30
2017-09-25T11:00:01.039Z,4.88
2017-09-25T11:02:29.400Z,5.34
2017-09-25T11:04:57.716Z,5.10
2017-09-25T11:07:26.023Z,5.00
2017-09-25T11:09:54.381Z,5.04
2017-09-25T11:12:22.696Z,4.70
2017-09-25T11:14:51.035Z,5.48
2017-09-25T11:17:19.351Z,5.42
2017-09-25T11:19:47.688Z,7.62
2017-09-25T11:22:16.010Z,6.56
2017-09-25T11:24:44.375Z,6.18
2017-09-25T11:27:12.694Z,6.72
2017-09-25T11:29:41.011Z,6.10
2017-09-25T11:32:09.344Z,7.38
2017-09-25T11:34:37.660Z,7.04
2017-09-25T11:37:06.000Z,6.06
2017-09-25T11:39:34.313Z,5.42
2017-09-25T11:42:02.652Z,5.12
2017-09-25T11:44:30.976Z,5.88
2017-09-25T11:47:00.153Z,6.14
2017-09-25T11:49:28.468Z,6.64
2017-09-25T11:51:56.785Z,5.16
2017-09-25T11:54:25.127Z,5.46
2017-09-25T11:56:53.440Z,5.98
2017-09-25T11:59:21.770Z,6.14
2017-09-25T12:01:50.091Z,5.96
2017-09-25T12:04:18.422Z,6.14
2017-09-25T12:06:46.732Z,5.94
2017-09-25T12:09:15.069Z,6.42
2017-09-25T12:11:43.380Z,5.36
2017-09-25T12:14:11.735Z,5.70
2017-09-25T12:16:40.059Z,5.72
2017-09-25T12:19:08.375Z,5.30
2017-09-25T12:21:36.714Z,5.70
2017-09-25T12:24:05.027Z,5.46
2017-09-25T12:26:33.367Z,6.98
2017-09-25T12:29:01.674Z,4.36
2017-09-25T12:31:30.032Z,5.02
2017-09-25T12:33:58.343Z,5.04
2017-09-25T12:36:26.647Z,4.22
2017-09-25T12:38:54.983Z,5.32
2017-09-25T12:41:23.304Z,5.60
2017-09-25T12:43:51.635Z,5.10
2017-09-25T12:46:19.956Z,5.08
2017-09-25T12:48:48.293Z,6.30
2017-09-25T12:51:16.608Z,5.16
2017-09-25T12:53:44.955Z,5.06
2017-09-25T12:56:13.268Z,4.74
2017-09-25T12:58:41.583Z,5.90
2017-09-25T13:01:09.912Z,5.96
2017-09-25T13:03:38.465Z,5.34
2017-09-25T13:06:06.919Z,5.24
2017-09-25T13:08:35.233Z,5.54
2017-09-25T13:11:03.589Z,5.62
2017-09-25T13:13:31.903Z,5.56
2017-09-25T13:16:00.236Z,5.26
2017-09-25T13:18:28.551Z,5.36
2017-09-25T13:20:56.899Z,5.52
2017-09-25T13:23:25.207Z,5.46
2017-09-25T13:25:53.540Z,5.56
2017-09-25T13:28:21.875Z,5.36
2017-09-25T13:30:50.188Z,5.32
2017-09-25T13:33:18.520Z,5.66
2017-09-25T13:35:46.845Z,5.80
2017-09-25T13:38:15.179Z,6.64
2017-09-25T13:40:43.500Z,5.44
2017-09-25T13:43:11.836Z,6.96
2017-09-25T13:45:40.159Z,6.74
2017-09-25T13:48:08.491Z,6.32
2017-09-25T13:50:36.807Z,6.14
2017-09-25T13:53:05.124Z,5.76
2017-09-25T13:55:33.447Z,5.28
2017-09-25T13:58:01.765Z,5.70
2017-09-25T14:03:03.846Z,5.44
2017-09-25T14:05:32.180Z,5.94
2017-09-25T14:08:00.489Z,5.50
2017-09-25T14:10:28.816Z,5.50
2017-09-25T14:12:57.128Z,5.70
2017-09-25T14:15:25.460Z,4.78
2017-09-25T14:17:53.784Z,5.20
2017-09-25T14:20:22.156Z,5.80
2017-09-25T14:22:50.465Z,4.92
2017-09-25T14:25:18.773Z,5.08
2017-09-25T14:27:47.119Z,4.90
2017-09-25T14:30:15.445Z,4.78
2017-09-25T14:32:43.772Z,6.20
2017-09-25T14:35:12.183Z,4.90
2017-09-25T14:37:40.524Z,5.12
2017-09-25T14:40:08.836Z,4.92
2017-09-25T14:42:37.172Z,4.94
2017-09-25T14:45:05.480Z,4.58
2017-09-25T14:47:33.861Z,6.02
2017-09-25T14:50:02.174Z,6.40
2017-09-25T14:52:30.491Z,4.58
2017-09-25T14:54:58.819Z,4.84
2017-09-25T14:57:27.135Z,4.74
2017-09-25T14:59:54.704Z,6.88
2017-09-25T15:02:23.024Z,4.92
2017-09-25T15:04:51.355Z,4.86
2017-09-25T15:07:19.668Z,4.70
2017-09-25T15:09:48.020Z,4.90
2017-09-25T15:12:16.439Z,4.86
2017-09-25T15:14:44.768Z,5.26
2017-09-25T15:17:13.119Z,5.84
2017-09-25T15:19:41.443Z,5.12
2017-09-25T15:22:09.784Z,5.42
2017-09-25T15:24:38.089Z,5.20
2017-09-25T15:27:06.431Z,5.90
2017-09-25T15:29:34.735Z,6.66
2017-09-25T15:32:03.102Z,5.12
2017-09-25T15:34:30.668Z,5.42
2017-09-25T15:36:59.435Z,5.18
2017-09-25T15:39:27.775Z,6.88
2017-09-25T15:41:56.091Z,6.20
2017-09-25T15:44:24.423Z,5.66
2017-09-25T15:46:52.744Z,4.18
2017-09-25T15:49:21.097Z,4.74
2017-09-25T15:51:49.408Z,5.30
2017-09-25T15:54:17.744Z,5.10
2017-09-25T15:56:46.056Z,5.06
2017-09-25T15:59:14.364Z,5.18
2017-09-25T16:01:42.705Z,6.28
2017-09-25T16:04:11.019Z,6.82
2017-09-25T16:06:39.361Z,5.04
2017-09-25T16:09:07.680Z,4.36
2017-09-25T16:11:36.015Z,4.90
2017-09-25T16:14:04.331Z,5.38
2017-09-25T16:16:32.679Z,6.94
2017-09-25T16:19:01.004Z,5.50
2017-09-25T16:21:29.316Z,5.32
2017-09-25T16:23:57.652Z,6.08
2017-09-25T16:26:25.199Z,6.78
2017-09-25T16:28:53.537Z,8.42
2017-09-25T16:31:21.866Z,5.62
2017-09-25T16:33:50.204Z,6.10
2017-09-25T16:36:18.529Z,6.08
2017-09-25T16:38:46.885Z,5.50
2017-09-25T16:41:15.217Z,5.36
2017-09-25T16:43:43.556Z,6.60
2017-09-25T16:46:11.871Z,6.36
2017-09-25T16:48:40.228Z,7.16
2017-09-25T16:51:08.794Z,8.52
2017-09-25T16:53:37.116Z,7.78
2017-09-25T16:56:05.453Z,5.94
2017-09-25T16:58:33.823Z,8.90
2017-09-25T17:01:02.176Z,8.78
2017-09-25T17:03:30.520Z,10.96
2017-09-25T17:05:58.952Z,10.12
2017-09-25T17:08:27.264Z,9.08
2017-09-25T17:10:55.594Z,9.60
2017-09-25T17:13:23.928Z,10.18
2017-09-25T17:15:52.289Z,10.28
2017-09-25T17:18:20.620Z,10.82
2017-09-25T17:20:48.976Z,10.04
2017-09-25T17:23:17.294Z,10.72
2017-09-25T17:25:45.617Z,10.36
2017-09-25T17:28:13.975Z,13.78
2017-09-25T17:30:42.289Z,9.54
2017-09-25T17:33:10.623Z,8.08
2017-09-25T17:35:38.932Z,9.18
2017-09-25T17:38:07.267Z,9.14
2017-09-25T17:40:35.581Z,8.60
2017-09-25T17:43:03.908Z,8.44
2017-09-25T17:45:32.394Z,10.02
2017-09-25T17:48:00.751Z,8.68
2017-09-25T17:50:29.056Z,9.20
2017-09-25T17:52:58.324Z,9.28
2017-09-25T17:55:26.668Z,12.14
2017-09-25T17:57:54.981Z,8.62
2017-09-25T18:00:23.340Z,9.08
2017-09-25T18:02:51.735Z,9.76
2017-09-25T18:05:20.078Z,9.46
2017-09-25T18:07:48.397Z,11.28
2017-09-25T18:10:16.743Z,16.42
2017-09-25T18:12:44.315Z,11.98
2017-09-25T18:15:12.675Z,8.30
2017-09-25T18:17:40.999Z,7.58
2017-09-25T18:20:09.319Z,10.86
2017-09-25T18:22:37.661Z,9.28
2017-09-25T18:25:05.989Z,17.82
2017-09-25T18:27:34.345Z,30.76
2017-09-25T18:30:02.672Z,47.32
2017-09-25T18:32:31.023Z,92.64
2017-09-25T18:34:59.344Z,54.62
2017-09-25T18:37:27.704Z,28.58
2017-09-25T18:39:56.032Z,23.72
2017-09-25T18:42:24.350Z,36.26
2017-09-25T18:44:52.746Z,19.90
2017-09-25T18:47:21.114Z,50.60
2017-09-25T18:49:49.483Z,38.56
2017-09-25T18:52:17.807Z,33.96
2017-09-25T18:54:46.151Z,13.66
2017-09-25T18:57:14.524Z,18.38
2017-09-25T18:59:42.884Z,44.18
2017-09-25T19:02:11.210Z,43.80
2017-09-25T19:04:39.546Z,19.50
2017-09-25T19:07:08.901Z,30.80
2017-09-25T19:09:36.456Z,27.60
2017-09-25T19:12:04.835Z,17.14
2017-09-25T19:14:33.229Z,13.68
2017-09-25T19:17:01.580Z,10.96
2017-09-25T19:19:29.944Z,23.62
2017-09-25T19:21:58.316Z,14.12
2017-09-25T19:24:26.639Z,11.68
2017-09-25T19:26:55.004Z,18.74
2017-09-25T19:29:23.348Z,23.12
2017-09-25T19:31:50.916Z,12.92
2017-09-25T19:34:19.289Z,11.82
2017-09-25T19:36:47.674Z,15.10
2017-09-25T19:39:16.091Z,18.52
2017-09-25T19:41:44.415Z,32.96
2017-09-25T19:44:12.759Z,12.30
2017-09-25T19:46:41.088Z,20.54
2017-09-25T19:49:12.943Z,36.02
2017-09-25T19:51:41.261Z,13.90
2017-09-25T19:54:10.406Z,13.18
2017-09-25T19:56:53.607Z,12.02
2017-09-25T19:59:21.970Z,10.88
2017-09-25T20:01:50.334Z,12.70
2017-09-25T20:04:18.683Z,25.24
2017-09-25T20:06:47.007Z,11.08
2017-09-25T20:09:15.355Z,15.00
2017-09-25T20:11:47.304Z,20.40
2017-09-25T20:14:15.708Z,10.36
2017-09-25T20:16:44.058Z,24.96
2017-09-25T20:19:12.388Z,15.66
2017-09-25T20:21:40.175Z,14.56
2017-09-25T20:24:08.497Z,16.16
2017-09-25T20:26:36.851Z,13.70
2017-09-25T20:29:05.173Z,12.06
2017-09-25T20:31:33.518Z,10.82
2017-09-25T20:34:01.827Z,11.42
2017-09-25T20:36:30.139Z,9.86
2017-09-25T20:38:58.479Z,10.58
2017-09-25T20:41:28.310Z,10.12
2017-09-25T20:43:57.440Z,15.28
2017-09-25T20:46:25.762Z,12.06
2017-09-25T20:48:54.103Z,11.20
2017-09-25T20:51:21.661Z,15.06
2017-09-25T20:53:50.008Z,32.52
2017-09-25T20:56:18.327Z,26.62
2017-09-25T20:58:46.656Z,13.18
2017-09-25T21:01:14.231Z,49.18
2017-09-25T21:03:42.556Z,27.14
2017-09-25T21:06:10.896Z,18.10
2017-09-25T21:08:39.227Z,10.72
2017-09-25T21:11:07.563Z,11.30
2017-09-25T21:13:35.882Z,13.80
2017-09-25T21:16:04.300Z,14.50
2017-09-25T21:18:32.624Z,12.78
2017-09-25T21:21:00.947Z,12.42
2017-09-25T21:23:29.287Z,10.98
2017-09-25T21:26:12.595Z,9.06
2017-09-25T21:28:40.964Z,10.82
2017-09-25T21:31:09.291Z,29.18
2017-09-25T21:33:37.644Z,31.96
2017-09-25T21:36:05.967Z,31.38
2017-09-25T21:38:34.324Z,28.84
2017-09-25T21:41:02.644Z,14.10
2017-09-25T21:43:30.973Z,29.94
2017-09-25T21:45:59.313Z,27.78
2017-09-25T21:48:27.690Z,14.78
2017-09-25T21:50:56.019Z,16.02
2017-09-25T21:53:24.333Z,38.38
2017-09-25T21:55:52.669Z,27.66
2017-09-25T21:58:20.991Z,14.46
2017-09-25T22:00:49.329Z,14.38
2017-09-25T22:03:17.656Z,14.66
2017-09-25T22:05:45.996Z,27.16
2017-09-25T22:08:14.308Z,21.60
2017-09-25T22:10:41.915Z,28.60
2017-09-25T22:13:10.231Z,13.26
2017-09-25T22:15:38.554Z,16.52
2017-09-25T22:18:06.891Z,20.12
2017-09-25T22:20:34.440Z,12.44
2017-09-25T22:23:02.781Z,14.34
2017-09-25T22:25:31.091Z,11.90
2017-09-25T22:27:59.422Z,10.86
2017-09-25T22:30:27.743Z,14.08
2017-09-25T22:32:56.103Z,12.28
2017-09-25T22:35:23.665Z,11.12
2017-09-25T22:37:51.975Z,28.78
2017-09-25T22:40:20.312Z,24.74
2017-09-25T22:42:48.622Z,107.06
2017-09-25T22:45:16.990Z,48.46
2017-09-25T22:47:45.299Z,15.94
2017-09-25T22:50:13.637Z,19.88
2017-09-25T22:52:41.958Z,23.12
2017-09-25T22:55:10.291Z,49.42
2017-09-25T22:57:38.608Z,17.60
2017-09-25T23:00:06.973Z,12.06
2017-09-25T23:02:35.291Z,13.64
2017-09-25T23:05:10.130Z,12.00
2017-09-25T23:07:38.443Z,10.90
2017-09-25T23:10:06.803Z,11.30
2017-09-25T23:12:35.115Z,13.22
2017-09-25T23:15:03.444Z,11.50
2017-09-25T23:17:31.772Z,10.54
2017-09-25T23:20:00.105Z,9.62
2017-09-25T23:22:28.435Z,11.40
2017-09-25T23:24:56.791Z,11.04
2017-09-25T23:27:25.134Z,10.56
2017-09-25T23:30:10.349Z,9.38
2017-09-25T23:32:38.677Z,8.68
2017-09-25T23:35:06.980Z,9.42
2017-09-25T23:37:35.310Z,8.72
2017-09-25T23:40:02.855Z,9.38
2017-09-25T23:42:31.216Z,9.36
2017-09-25T23:44:59.533Z,11.80
2017-09-25T23:47:27.852Z,9.18
2017-09-25T23:49:56.180Z,8.86
2017-09-25T23:52:24.491Z,10.28
2017-09-25T23:54:52.832Z,10.42
2017-09-25T23:57:21.142Z,9.62
2017-09-25T23:59:49.479Z,13.18
